sensor_id;sensor_type;location;lat;lon;timestamp;temperature;humidity
75961;SHT30;64644;48.914;2.254;2023-07-20T00:01:06;21.41;57.06
75961;SHT30;64644;48.914;2.254;2023-07-20T00:03:31;21.38;57.22
75961;SHT30;64644;48.914;2.254;2023-07-20T00:05:57;21.37;57.28
75961;SHT30;64644;48.914;2.254;2023-07-20T00:08:22;21.37;57.25
75961;SHT30;64644;48.914;2.254;2023-07-20T00:10:48;21.34;57.41
75961;SHT30;64644;48.914;2.254;2023-07-20T00:13:14;21.32;57.60
75961;SHT30;64644;48.914;2.254;2023-07-20T00:15:41;21.30;57.57
75961;SHT30;64644;48.914;2.254;2023-07-20T00:18:06;21.25;57.69
75961;SHT30;64644;48.914;2.254;2023-07-20T00:20:32;21.24;57.65
75961;SHT30;64644;48.914;2.254;2023-07-20T00:22:58;21.20;57.72
75961;SHT30;64644;48.914;2.254;2023-07-20T00:25:26;21.18;57.88
75961;SHT30;64644;48.914;2.254;2023-07-20T00:27:51;21.15;57.91
75961;SHT30;64644;48.914;2.254;2023-07-20T00:30:18;21.12;58.05
75961;SHT30;64644;48.914;2.254;2023-07-20T00:32:43;21.11;58.23
75961;SHT30;64644;48.914;2.254;2023-07-20T00:35:09;21.08;58.31
75961;SHT30;64644;48.914;2.254;2023-07-20T00:37:35;21.06;58.41
75961;SHT30;64644;48.914;2.254;2023-07-20T00:40:00;21.06;58.28
75961;SHT30;64644;48.914;2.254;2023-07-20T00:42:26;21.04;58.46
75961;SHT30;64644;48.914;2.254;2023-07-20T00:44:53;21.04;58.50
75961;SHT30;64644;48.914;2.254;2023-07-20T00:47:18;21.00;58.60
75961;SHT30;64644;48.914;2.254;2023-07-20T00:49:43;21.00;58.83
75961;SHT30;64644;48.914;2.254;2023-07-20T00:52:10;20.99;58.94
75961;SHT30;64644;48.914;2.254;2023-07-20T00:54:37;20.96;59.01
75961;SHT30;64644;48.914;2.254;2023-07-20T00:57:02;20.93;59.10
75961;SHT30;64644;48.914;2.254;2023-07-20T00:59:29;20.93;59.19
75961;SHT30;64644;48.914;2.254;2023-07-20T01:01:54;20.87;59.26
75961;SHT30;64644;48.914;2.254;2023-07-20T01:04:20;20.87;59.37
75961;SHT30;64644;48.914;2.254;2023-07-20T01:07:03;20.86;59.18
75961;SHT30;64644;48.914;2.254;2023-07-20T01:09:45;20.79;59.38
75961;SHT30;64644;48.914;2.254;2023-07-20T01:12:20;20.77;59.69
75961;SHT30;64644;48.914;2.254;2023-07-20T01:14:46;20.79;59.79
75961;SHT30;64644;48.914;2.254;2023-07-20T01:17:11;20.75;59.68
75961;SHT30;64644;48.914;2.254;2023-07-20T01:19:37;20.75;59.69
75961;SHT30;64644;48.914;2.254;2023-07-20T01:22:20;20.71;59.79
75961;SHT30;64644;48.914;2.254;2023-07-20T01:33:12;20.68;60.33
75961;SHT30;64644;48.914;2.254;2023-07-20T01:35:41;20.65;60.32
75961;SHT30;64644;48.914;2.254;2023-07-20T01:38:10;20.65;60.33
75961;SHT30;64644;48.914;2.254;2023-07-20T01:40:35;20.62;60.44
75961;SHT30;64644;48.914;2.254;2023-07-20T01:43:02;20.62;60.19
75961;SHT30;64644;48.914;2.254;2023-07-20T01:45:27;20.58;60.34
75961;SHT30;64644;48.914;2.254;2023-07-20T01:47:53;20.56;60.39
75961;SHT30;64644;48.914;2.254;2023-07-20T01:50:18;20.55;60.48
75961;SHT30;64644;48.914;2.254;2023-07-20T01:52:43;20.52;60.59
75961;SHT30;64644;48.914;2.254;2023-07-20T01:55:09;20.49;60.78
75961;SHT30;64644;48.914;2.254;2023-07-20T01:57:34;20.45;60.86
75961;SHT30;64644;48.914;2.254;2023-07-20T01:59:59;20.45;60.87
75961;SHT30;64644;48.914;2.254;2023-07-20T02:02:27;20.39;60.93
75961;SHT30;64644;48.914;2.254;2023-07-20T02:04:53;20.41;60.99
75961;SHT30;64644;48.914;2.254;2023-07-20T02:07:19;20.41;61.05
75961;SHT30;64644;48.914;2.254;2023-07-20T02:09:45;20.39;61.23
75961;SHT30;64644;48.914;2.254;2023-07-20T02:12:10;20.38;61.13
75961;SHT30;64644;48.914;2.254;2023-07-20T02:14:35;20.38;61.14
75961;SHT30;64644;48.914;2.254;2023-07-20T02:17:01;20.37;61.30
75961;SHT30;64644;48.914;2.254;2023-07-20T02:19:26;20.37;61.38
75961;SHT30;64644;48.914;2.254;2023-07-20T02:21:52;20.39;61.36
75961;SHT30;64644;48.914;2.254;2023-07-20T02:24:18;20.34;61.39
75961;SHT30;64644;48.914;2.254;2023-07-20T02:26:43;20.31;61.45
75961;SHT30;64644;48.914;2.254;2023-07-20T02:29:09;20.31;61.42
75961;SHT30;64644;48.914;2.254;2023-07-20T02:31:37;20.30;61.52
75961;SHT30;64644;48.914;2.254;2023-07-20T02:34:06;20.27;61.62
75961;SHT30;64644;48.914;2.254;2023-07-20T02:36:32;20.25;61.64
75961;SHT30;64644;48.914;2.254;2023-07-20T02:38:58;20.22;61.63
75961;SHT30;64644;48.914;2.254;2023-07-20T02:41:24;20.20;61.70
75961;SHT30;64644;48.914;2.254;2023-07-20T02:43:49;20.17;61.79
75961;SHT30;64644;48.914;2.254;2023-07-20T02:46:15;20.17;61.86
75961;SHT30;64644;48.914;2.254;2023-07-20T02:48:40;20.16;61.96
75961;SHT30;64644;48.914;2.254;2023-07-20T02:51:05;20.16;62.00
75961;SHT30;64644;48.914;2.254;2023-07-20T02:53:32;20.14;61.48
75961;SHT30;64644;48.914;2.254;2023-07-20T02:55:58;20.04;61.74
75961;SHT30;64644;48.914;2.254;2023-07-20T02:58:23;20.00;62.13
75961;SHT30;64644;48.914;2.254;2023-07-20T03:00:48;20.04;62.29
75961;SHT30;64644;48.914;2.254;2023-07-20T03:03:14;19.97;62.19
75961;SHT30;64644;48.914;2.254;2023-07-20T03:05:42;19.94;61.88
75961;SHT30;64644;48.914;2.254;2023-07-20T03:08:08;19.86;62.00
75961;SHT30;64644;48.914;2.254;2023-07-20T03:10:38;19.79;62.50
75961;SHT30;64644;48.914;2.254;2023-07-20T03:13:04;19.80;62.87
75961;SHT30;64644;48.914;2.254;2023-07-20T03:15:29;19.83;63.12
75961;SHT30;64644;48.914;2.254;2023-07-20T03:17:54;19.82;63.16
75961;SHT30;64644;48.914;2.254;2023-07-20T03:20:20;19.83;63.35
75961;SHT30;64644;48.914;2.254;2023-07-20T03:22:45;19.82;62.90
75961;SHT30;64644;48.914;2.254;2023-07-20T03:25:11;19.83;62.88
75961;SHT30;64644;48.914;2.254;2023-07-20T03:27:36;19.73;62.88
75961;SHT30;64644;48.914;2.254;2023-07-20T03:30:02;19.69;62.80
75961;SHT30;64644;48.914;2.254;2023-07-20T03:32:28;19.62;62.92
75961;SHT30;64644;48.914;2.254;2023-07-20T03:34:53;19.58;63.25
75961;SHT30;64644;48.914;2.254;2023-07-20T03:37:18;19.55;63.39
75961;SHT30;64644;48.914;2.254;2023-07-20T03:39:44;19.51;63.36
75961;SHT30;64644;48.914;2.254;2023-07-20T03:42:09;19.45;63.29
75961;SHT30;64644;48.914;2.254;2023-07-20T03:44:34;19.38;63.38
75961;SHT30;64644;48.914;2.254;2023-07-20T03:47:00;19.36;63.68
75961;SHT30;64644;48.914;2.254;2023-07-20T03:49:25;19.31;63.82
75961;SHT30;64644;48.914;2.254;2023-07-20T03:51:51;19.28;64.14
75961;SHT30;64644;48.914;2.254;2023-07-20T03:54:16;19.28;64.39
75961;SHT30;64644;48.914;2.254;2023-07-20T03:56:41;19.28;64.14
75961;SHT30;64644;48.914;2.254;2023-07-20T03:59:07;19.25;64.62
75961;SHT30;64644;48.914;2.254;2023-07-20T04:01:32;19.28;64.77
75961;SHT30;64644;48.914;2.254;2023-07-20T04:04:04;19.25;64.57
75961;SHT30;64644;48.914;2.254;2023-07-20T04:06:30;19.25;64.79
75961;SHT30;64644;48.914;2.254;2023-07-20T04:08:55;19.27;64.68
75961;SHT30;64644;48.914;2.254;2023-07-20T04:11:20;19.24;64.51
75961;SHT30;64644;48.914;2.254;2023-07-20T04:13:46;19.21;64.61
75961;SHT30;64644;48.914;2.254;2023-07-20T04:16:11;19.18;64.83
75961;SHT30;64644;48.914;2.254;2023-07-20T04:18:36;19.17;65.05
75961;SHT30;64644;48.914;2.254;2023-07-20T04:21:02;19.18;65.16
75961;SHT30;64644;48.914;2.254;2023-07-20T04:23:27;19.17;65.26
75961;SHT30;64644;48.914;2.254;2023-07-20T04:25:52;19.20;65.39
75961;SHT30;64644;48.914;2.254;2023-07-20T04:28:18;19.21;65.23
75961;SHT30;64644;48.914;2.254;2023-07-20T04:30:43;19.24;65.31
75961;SHT30;64644;48.914;2.254;2023-07-20T04:33:08;19.23;65.27
75961;SHT30;64644;48.914;2.254;2023-07-20T04:35:48;19.23;65.41
75961;SHT30;64644;48.914;2.254;2023-07-20T04:38:15;19.23;65.59
75961;SHT30;64644;48.914;2.254;2023-07-20T04:40:42;19.24;65.73
75961;SHT30;64644;48.914;2.254;2023-07-20T04:43:08;19.27;65.75
75961;SHT30;64644;48.914;2.254;2023-07-20T04:45:33;19.30;65.77
75961;SHT30;64644;48.914;2.254;2023-07-20T04:47:59;19.34;65.62
75961;SHT30;64644;48.914;2.254;2023-07-20T04:50:24;19.30;65.58
75961;SHT30;64644;48.914;2.254;2023-07-20T04:52:50;19.31;65.66
75961;SHT30;64644;48.914;2.254;2023-07-20T04:55:16;19.32;65.60
75961;SHT30;64644;48.914;2.254;2023-07-20T04:57:41;19.32;65.82
75961;SHT30;64644;48.914;2.254;2023-07-20T05:00:07;19.31;65.89
75961;SHT30;64644;48.914;2.254;2023-07-20T05:02:32;19.34;65.81
75961;SHT30;64644;48.914;2.254;2023-07-20T05:04:57;19.36;65.78
75961;SHT30;64644;48.914;2.254;2023-07-20T05:07:23;19.36;65.42
75961;SHT30;64644;48.914;2.254;2023-07-20T05:09:48;19.35;65.73
75961;SHT30;64644;48.914;2.254;2023-07-20T05:12:14;19.34;65.55
75961;SHT30;64644;48.914;2.254;2023-07-20T05:14:39;19.31;65.74
75961;SHT30;64644;48.914;2.254;2023-07-20T05:17:05;19.28;65.75
75961;SHT30;64644;48.914;2.254;2023-07-20T05:19:30;19.25;65.75
75961;SHT30;64644;48.914;2.254;2023-07-20T05:21:56;19.28;65.71
75961;SHT30;64644;48.914;2.254;2023-07-20T05:24:21;19.21;65.76
75961;SHT30;64644;48.914;2.254;2023-07-20T05:26:47;19.24;65.78
75961;SHT30;64644;48.914;2.254;2023-07-20T05:29:13;19.24;65.84
75961;SHT30;64644;48.914;2.254;2023-07-20T05:31:38;19.24;65.91
75961;SHT30;64644;48.914;2.254;2023-07-20T05:34:03;19.28;66.07
75961;SHT30;64644;48.914;2.254;2023-07-20T05:36:29;19.28;65.71
75961;SHT30;64644;48.914;2.254;2023-07-20T05:38:56;19.25;65.52
75961;SHT30;64644;48.914;2.254;2023-07-20T05:41:21;19.23;65.80
75961;SHT30;64644;48.914;2.254;2023-07-20T05:43:47;19.23;65.71
75961;SHT30;64644;48.914;2.254;2023-07-20T05:46:13;19.21;65.81
75961;SHT30;64644;48.914;2.254;2023-07-20T05:48:38;19.18;65.61
75961;SHT30;64644;48.914;2.254;2023-07-20T05:51:03;19.20;65.66
75961;SHT30;64644;48.914;2.254;2023-07-20T05:53:29;19.14;65.62
75961;SHT30;64644;48.914;2.254;2023-07-20T05:55:54;19.10;65.87
75961;SHT30;64644;48.914;2.254;2023-07-20T05:58:20;19.10;65.77
75961;SHT30;64644;48.914;2.254;2023-07-20T06:00:49;19.07;65.89
75961;SHT30;64644;48.914;2.254;2023-07-20T06:03:15;19.08;65.85
75961;SHT30;64644;48.914;2.254;2023-07-20T06:05:42;19.10;66.09
75961;SHT30;64644;48.914;2.254;2023-07-20T06:08:07;19.13;66.14
75961;SHT30;64644;48.914;2.254;2023-07-20T06:10:32;19.15;66.27
75961;SHT30;64644;48.914;2.254;2023-07-20T06:12:58;19.18;66.02
75961;SHT30;64644;48.914;2.254;2023-07-20T06:15:28;19.20;65.95
75961;SHT30;64644;48.914;2.254;2023-07-20T06:17:54;19.13;65.81
75961;SHT30;64644;48.914;2.254;2023-07-20T06:20:22;19.11;66.15
75961;SHT30;64644;48.914;2.254;2023-07-20T06:22:47;19.15;66.10
75961;SHT30;64644;48.914;2.254;2023-07-20T06:25:13;19.10;65.82
75961;SHT30;64644;48.914;2.254;2023-07-20T06:27:38;19.08;66.25
75961;SHT30;64644;48.914;2.254;2023-07-20T06:30:05;19.10;66.43
75961;SHT30;64644;48.914;2.254;2023-07-20T06:32:30;19.14;66.38
75961;SHT30;64644;48.914;2.254;2023-07-20T06:34:56;19.18;66.42
75961;SHT30;64644;48.914;2.254;2023-07-20T06:37:21;19.17;66.20
75961;SHT30;64644;48.914;2.254;2023-07-20T06:39:47;19.21;66.57
75961;SHT30;64644;48.914;2.254;2023-07-20T06:42:12;19.25;66.56
75961;SHT30;64644;48.914;2.254;2023-07-20T06:44:39;19.27;66.59
75961;SHT30;64644;48.914;2.254;2023-07-20T06:47:04;19.35;66.61
75961;SHT30;64644;48.914;2.254;2023-07-20T06:49:30;19.41;66.45
75961;SHT30;64644;48.914;2.254;2023-07-20T06:51:55;19.41;66.01
75961;SHT30;64644;48.914;2.254;2023-07-20T06:54:20;19.41;66.12
75961;SHT30;64644;48.914;2.254;2023-07-20T06:56:46;19.41;66.20
75961;SHT30;64644;48.914;2.254;2023-07-20T06:59:11;19.45;65.98
75961;SHT30;64644;48.914;2.254;2023-07-20T07:01:37;19.48;65.89
75961;SHT30;64644;48.914;2.254;2023-07-20T07:04:02;19.44;66.04
75961;SHT30;64644;48.914;2.254;2023-07-20T07:06:28;19.45;66.11
75961;SHT30;64644;48.914;2.254;2023-07-20T07:08:54;19.49;65.99
75961;SHT30;64644;48.914;2.254;2023-07-20T07:11:20;19.54;66.30
75961;SHT30;64644;48.914;2.254;2023-07-20T07:13:46;19.58;66.08
75961;SHT30;64644;48.914;2.254;2023-07-20T07:16:12;19.62;66.27
75961;SHT30;64644;48.914;2.254;2023-07-20T07:18:39;19.65;66.26
75961;SHT30;64644;48.914;2.254;2023-07-20T07:21:05;19.73;66.40
75961;SHT30;64644;48.914;2.254;2023-07-20T07:23:30;19.85;66.43
75961;SHT30;64644;48.914;2.254;2023-07-20T07:25:56;19.96;66.27
75961;SHT30;64644;48.914;2.254;2023-07-20T07:28:21;20.03;66.08
75961;SHT30;64644;48.914;2.254;2023-07-20T07:30:46;20.13;65.90
75961;SHT30;64644;48.914;2.254;2023-07-20T07:33:12;20.20;65.58
75961;SHT30;64644;48.914;2.254;2023-07-20T07:35:37;20.22;65.51
75961;SHT30;64644;48.914;2.254;2023-07-20T07:38:02;20.22;65.24
75961;SHT30;64644;48.914;2.254;2023-07-20T07:40:28;20.22;65.14
75961;SHT30;64644;48.914;2.254;2023-07-20T07:42:53;20.25;65.19
75961;SHT30;64644;48.914;2.254;2023-07-20T07:45:18;20.32;65.05
75961;SHT30;64644;48.914;2.254;2023-07-20T07:47:44;20.34;64.77
75961;SHT30;64644;48.914;2.254;2023-07-20T07:50:10;20.38;64.70
75961;SHT30;64644;48.914;2.254;2023-07-20T07:52:35;20.42;64.54
75961;SHT30;64644;48.914;2.254;2023-07-20T07:55:01;20.44;64.47
75961;SHT30;64644;48.914;2.254;2023-07-20T07:57:26;20.49;64.51
75961;SHT30;64644;48.914;2.254;2023-07-20T07:59:52;20.55;64.51
75961;SHT30;64644;48.914;2.254;2023-07-20T08:02:17;20.61;64.53
75961;SHT30;64644;48.914;2.254;2023-07-20T08:04:42;20.69;64.31
75961;SHT30;64644;48.914;2.254;2023-07-20T08:07:08;20.77;64.18
75961;SHT30;64644;48.914;2.254;2023-07-20T08:09:33;20.83;64.43
75961;SHT30;64644;48.914;2.254;2023-07-20T08:11:58;20.97;64.21
75961;SHT30;64644;48.914;2.254;2023-07-20T08:14:24;21.04;64.01
75961;SHT30;64644;48.914;2.254;2023-07-20T08:16:50;21.10;63.64
75961;SHT30;64644;48.914;2.254;2023-07-20T08:19:15;21.15;63.20
75961;SHT30;64644;48.914;2.254;2023-07-20T08:21:40;21.15;62.91
75961;SHT30;64644;48.914;2.254;2023-07-20T08:24:06;21.18;62.89
75961;SHT30;64644;48.914;2.254;2023-07-20T08:26:32;21.24;62.89
75961;SHT30;64644;48.914;2.254;2023-07-20T08:28:57;21.24;62.66
75961;SHT30;64644;48.914;2.254;2023-07-20T08:31:22;21.28;62.66
75961;SHT30;64644;48.914;2.254;2023-07-20T08:33:48;21.34;62.55
75961;SHT30;64644;48.914;2.254;2023-07-20T08:36:14;21.41;62.19
75961;SHT30;64644;48.914;2.254;2023-07-20T08:38:39;21.45;61.89
75961;SHT30;64644;48.914;2.254;2023-07-20T08:41:04;21.55;61.75
75961;SHT30;64644;48.914;2.254;2023-07-20T08:43:30;21.58;61.20
75961;SHT30;64644;48.914;2.254;2023-07-20T08:45:57;21.67;61.01
75961;SHT30;64644;48.914;2.254;2023-07-20T08:48:22;21.72;60.74
75961;SHT30;64644;48.914;2.254;2023-07-20T08:50:52;21.83;60.74
75961;SHT30;64644;48.914;2.254;2023-07-20T08:53:22;21.93;60.69
75961;SHT30;64644;48.914;2.254;2023-07-20T08:55:50;22.01;60.46
75961;SHT30;64644;48.914;2.254;2023-07-20T08:58:17;22.18;60.58
75961;SHT30;64644;48.914;2.254;2023-07-20T09:00:43;22.30;60.43
75961;SHT30;64644;48.914;2.254;2023-07-20T09:03:08;22.40;59.89
75961;SHT30;64644;48.914;2.254;2023-07-20T09:05:37;22.45;59.41
75961;SHT30;64644;48.914;2.254;2023-07-20T09:08:02;22.51;58.99
75961;SHT30;64644;48.914;2.254;2023-07-20T09:10:30;22.60;58.86
75961;SHT30;64644;48.914;2.254;2023-07-20T09:12:56;22.72;58.49
75961;SHT30;64644;48.914;2.254;2023-07-20T09:15:22;22.83;58.27
75961;SHT30;64644;48.914;2.254;2023-07-20T09:17:51;22.92;57.90
75961;SHT30;64644;48.914;2.254;2023-07-20T09:20:18;23.02;57.73
75961;SHT30;64644;48.914;2.254;2023-07-20T09:22:44;23.08;57.52
75961;SHT30;64644;48.914;2.254;2023-07-20T09:25:15;23.10;57.15
75961;SHT30;64644;48.914;2.254;2023-07-20T09:27:42;23.20;57.22
75961;SHT30;64644;48.914;2.254;2023-07-20T09:30:09;23.31;57.06
75961;SHT30;64644;48.914;2.254;2023-07-20T09:32:39;23.45;56.91
75961;SHT30;64644;48.914;2.254;2023-07-20T09:35:05;23.58;56.68
75961;SHT30;64644;48.914;2.254;2023-07-20T09:37:33;23.63;55.93
75961;SHT30;64644;48.914;2.254;2023-07-20T09:39:59;23.67;55.25
75961;SHT30;64644;48.914;2.254;2023-07-20T09:42:25;23.67;54.78
75961;SHT30;64644;48.914;2.254;2023-07-20T09:44:52;23.70;54.43
75961;SHT30;64644;48.914;2.254;2023-07-20T09:47:24;23.73;54.22
75961;SHT30;64644;48.914;2.254;2023-07-20T09:49:58;23.75;53.73
75961;SHT30;64644;48.914;2.254;2023-07-20T09:52:25;23.79;53.43
75961;SHT30;64644;48.914;2.254;2023-07-20T09:54:51;23.87;53.49
75961;SHT30;64644;48.914;2.254;2023-07-20T09:57:16;24.00;53.67
75961;SHT30;64644;48.914;2.254;2023-07-20T09:59:43;24.10;53.44
75961;SHT30;64644;48.914;2.254;2023-07-20T10:02:23;24.07;53.07
75961;SHT30;64644;48.914;2.254;2023-07-20T10:04:52;24.17;52.41
75961;SHT30;64644;48.914;2.254;2023-07-20T10:07:19;24.21;52.19
75961;SHT30;64644;48.914;2.254;2023-07-20T10:09:48;24.28;52.20
75961;SHT30;64644;48.914;2.254;2023-07-20T10:12:15;24.35;51.73
75961;SHT30;64644;48.914;2.254;2023-07-20T10:14:52;24.49;51.44
75961;SHT30;64644;48.914;2.254;2023-07-20T10:17:20;24.61;50.83
75961;SHT30;64644;48.914;2.254;2023-07-20T10:19:49;24.62;50.90
75961;SHT30;64644;48.914;2.254;2023-07-20T10:22:27;24.59;50.83
75961;SHT30;64644;48.914;2.254;2023-07-20T10:24:53;24.51;50.47
75961;SHT30;64644;48.914;2.254;2023-07-20T10:27:20;24.47;49.76
75961;SHT30;64644;48.914;2.254;2023-07-20T10:29:46;24.47;50.01
75961;SHT30;64644;48.914;2.254;2023-07-20T10:32:12;24.55;50.11
75961;SHT30;64644;48.914;2.254;2023-07-20T10:34:38;24.72;50.13
75961;SHT30;64644;48.914;2.254;2023-07-20T10:37:04;24.89;50.22
75961;SHT30;64644;48.914;2.254;2023-07-20T10:39:33;24.94;49.66
75961;SHT30;64644;48.914;2.254;2023-07-20T10:42:08;25.02;49.26
75961;SHT30;64644;48.914;2.254;2023-07-20T10:44:36;25.10;48.67
75961;SHT30;64644;48.914;2.254;2023-07-20T10:47:08;25.18;48.68
75961;SHT30;64644;48.914;2.254;2023-07-20T10:49:34;25.27;48.22
75961;SHT30;64644;48.914;2.254;2023-07-20T10:52:04;25.23;48.57
75961;SHT30;64644;48.914;2.254;2023-07-20T10:57:22;25.06;48.04
75961;SHT30;64644;48.914;2.254;2023-07-20T10:59:47;25.14;47.91
75961;SHT30;64644;48.914;2.254;2023-07-20T11:02:13;25.34;48.37
75961;SHT30;64644;48.914;2.254;2023-07-20T11:04:39;25.57;47.94
75961;SHT30;64644;48.914;2.254;2023-07-20T11:07:05;25.78;47.25
75961;SHT30;64644;48.914;2.254;2023-07-20T11:09:38;25.93;46.89
75961;SHT30;64644;48.914;2.254;2023-07-20T11:12:14;26.08;46.58
75961;SHT30;64644;48.914;2.254;2023-07-20T11:14:58;26.28;46.50
75961;SHT30;64644;48.914;2.254;2023-07-20T11:17:31;26.37;45.58
75961;SHT30;64644;48.914;2.254;2023-07-20T11:19:57;26.42;45.12
75961;SHT30;64644;48.914;2.254;2023-07-20T11:22:23;26.45;45.50
75961;SHT30;64644;48.914;2.254;2023-07-20T11:24:49;26.41;45.51
75961;SHT30;64644;48.914;2.254;2023-07-20T11:27:15;26.47;44.79
75961;SHT30;64644;48.914;2.254;2023-07-20T11:29:40;26.56;44.62
75961;SHT30;64644;48.914;2.254;2023-07-20T11:32:06;26.60;44.61
75961;SHT30;64644;48.914;2.254;2023-07-20T11:34:33;26.58;43.82
75961;SHT30;64644;48.914;2.254;2023-07-20T11:36:59;26.55;42.96
75961;SHT30;64644;48.914;2.254;2023-07-20T11:39:25;26.55;42.88
75961;SHT30;64644;48.914;2.254;2023-07-20T11:41:57;26.63;43.03
75961;SHT30;64644;48.914;2.254;2023-07-20T11:44:26;26.73;43.19
75961;SHT30;64644;48.914;2.254;2023-07-20T11:47:12;26.58;42.65
75961;SHT30;64644;48.914;2.254;2023-07-20T11:49:39;26.41;42.21
75961;SHT30;64644;48.914;2.254;2023-07-20T11:52:06;26.42;42.21
75961;SHT30;64644;48.914;2.254;2023-07-20T11:54:34;26.51;42.61
75961;SHT30;64644;48.914;2.254;2023-07-20T11:57:03;26.41;42.36
75961;SHT30;64644;48.914;2.254;2023-07-20T11:59:29;26.39;42.15
75961;SHT30;64644;48.914;2.254;2023-07-20T12:01:54;26.39;41.92
75961;SHT30;64644;48.914;2.254;2023-07-20T12:04:22;26.52;42.26
75961;SHT30;64644;48.914;2.254;2023-07-20T12:06:48;26.60;41.90
75961;SHT30;64644;48.914;2.254;2023-07-20T12:09:14;26.73;41.64
75961;SHT30;64644;48.914;2.254;2023-07-20T12:11:43;26.90;41.72
75961;SHT30;64644;48.914;2.254;2023-07-20T12:14:09;27.10;41.79
75961;SHT30;64644;48.914;2.254;2023-07-20T12:16:36;27.24;41.26
75961;SHT30;64644;48.914;2.254;2023-07-20T12:19:11;27.31;40.72
75961;SHT30;64644;48.914;2.254;2023-07-20T12:21:39;27.41;40.33
75961;SHT30;64644;48.914;2.254;2023-07-20T12:24:08;27.54;40.55
75961;SHT30;64644;48.914;2.254;2023-07-20T12:26:36;27.62;40.07
75961;SHT30;64644;48.914;2.254;2023-07-20T12:29:02;27.72;39.94
75961;SHT30;64644;48.914;2.254;2023-07-20T12:31:28;27.74;38.92
75961;SHT30;64644;48.914;2.254;2023-07-20T12:33:57;27.82;39.37
75961;SHT30;64644;48.914;2.254;2023-07-20T12:36:24;27.90;38.85
75961;SHT30;64644;48.914;2.254;2023-07-20T12:38:49;28.07;38.55
75961;SHT30;64644;48.914;2.254;2023-07-20T12:41:15;28.20;39.07
75961;SHT30;64644;48.914;2.254;2023-07-20T12:43:41;28.22;37.96
75961;SHT30;64644;48.914;2.254;2023-07-20T12:46:07;28.37;38.87
75961;SHT30;64644;48.914;2.254;2023-07-20T12:48:32;28.45;38.82
75961;SHT30;64644;48.914;2.254;2023-07-20T12:50:58;28.35;37.74
75961;SHT30;64644;48.914;2.254;2023-07-20T12:53:23;28.47;38.14
75961;SHT30;64644;48.914;2.254;2023-07-20T12:55:49;28.63;37.90
75961;SHT30;64644;48.914;2.254;2023-07-20T12:58:15;28.84;38.00
75961;SHT30;64644;48.914;2.254;2023-07-20T13:00:40;28.95;37.93
75961;SHT30;64644;48.914;2.254;2023-07-20T13:03:06;28.97;37.39
75961;SHT30;64644;48.914;2.254;2023-07-20T13:05:34;29.13;37.72
75961;SHT30;64644;48.914;2.254;2023-07-20T13:08:00;29.10;37.14
75961;SHT30;64644;48.914;2.254;2023-07-20T13:10:26;29.18;37.23
75961;SHT30;64644;48.914;2.254;2023-07-20T13:12:52;29.24;36.79
75961;SHT30;64644;48.914;2.254;2023-07-20T13:15:17;29.41;37.36
75961;SHT30;64644;48.914;2.254;2023-07-20T13:17:43;29.52;36.86
75961;SHT30;64644;48.914;2.254;2023-07-20T13:20:10;29.59;37.08
75961;SHT30;64644;48.914;2.254;2023-07-20T13:22:39;29.69;36.96
75961;SHT30;64644;48.914;2.254;2023-07-20T13:25:05;29.77;36.81
75961;SHT30;64644;48.914;2.254;2023-07-20T13:27:31;29.80;36.56
75961;SHT30;64644;48.914;2.254;2023-07-20T13:29:58;29.86;36.85
75961;SHT30;64644;48.914;2.254;2023-07-20T13:32:23;29.90;36.15
75961;SHT30;64644;48.914;2.254;2023-07-20T13:34:48;30.04;36.49
75961;SHT30;64644;48.914;2.254;2023-07-20T13:37:14;30.06;35.95
75961;SHT30;64644;48.914;2.254;2023-07-20T13:39:41;30.03;35.80
75961;SHT30;64644;48.914;2.254;2023-07-20T13:42:06;30.07;36.35
75961;SHT30;64644;48.914;2.254;2023-07-20T13:44:32;30.16;36.26
75961;SHT30;64644;48.914;2.254;2023-07-20T13:46:57;30.24;35.58
75961;SHT30;64644;48.914;2.254;2023-07-20T13:49:23;30.39;35.92
75961;SHT30;64644;48.914;2.254;2023-07-20T13:51:49;30.56;35.62
75961;SHT30;64644;48.914;2.254;2023-07-20T13:54:14;30.56;35.32
75961;SHT30;64644;48.914;2.254;2023-07-20T13:56:40;30.39;35.04
75961;SHT30;64644;48.914;2.254;2023-07-20T13:59:05;30.20;35.12
75961;SHT30;64644;48.914;2.254;2023-07-20T14:01:31;30.13;35.22
75961;SHT30;64644;48.914;2.254;2023-07-20T14:03:58;30.02;35.24
75961;SHT30;64644;48.914;2.254;2023-07-20T14:06:23;29.97;34.89
75961;SHT30;64644;48.914;2.254;2023-07-20T14:08:49;30.14;34.84
75961;SHT30;64644;48.914;2.254;2023-07-20T14:11:16;30.55;34.41
75961;SHT30;64644;48.914;2.254;2023-07-20T14:13:41;30.47;33.66
75961;SHT30;64644;48.914;2.254;2023-07-20T14:16:07;30.84;33.86
75961;SHT30;64644;48.914;2.254;2023-07-20T14:18:33;32.05;33.32
75961;SHT30;64644;48.914;2.254;2023-07-20T14:20:58;33.68;31.88
75961;SHT30;64644;48.914;2.254;2023-07-20T14:23:24;35.12;30.52
75961;SHT30;64644;48.914;2.254;2023-07-20T14:25:49;35.93;29.38
75961;SHT30;64644;48.914;2.254;2023-07-20T14:28:15;35.67;28.79
75961;SHT30;64644;48.914;2.254;2023-07-20T14:30:41;34.95;29.01
75961;SHT30;64644;48.914;2.254;2023-07-20T14:33:07;33.99;29.33
75961;SHT30;64644;48.914;2.254;2023-07-20T14:35:33;33.21;30.06
75961;SHT30;64644;48.914;2.254;2023-07-20T14:37:59;32.65;30.49
75961;SHT30;64644;48.914;2.254;2023-07-20T14:40:25;32.25;30.82
75961;SHT30;64644;48.914;2.254;2023-07-20T14:42:50;31.90;31.57
75961;SHT30;64644;48.914;2.254;2023-07-20T14:45:17;31.58;31.40
75961;SHT30;64644;48.914;2.254;2023-07-20T14:47:42;31.20;31.75
75961;SHT30;64644;48.914;2.254;2023-07-20T14:50:08;30.83;31.83
75961;SHT30;64644;48.914;2.254;2023-07-20T14:52:35;30.48;32.24
75961;SHT30;64644;48.914;2.254;2023-07-20T14:55:00;30.31;32.69
75961;SHT30;64644;48.914;2.254;2023-07-20T14:57:26;30.34;33.04
75961;SHT30;64644;48.914;2.254;2023-07-20T14:59:51;30.25;32.79
75961;SHT30;64644;48.914;2.254;2023-07-20T15:02:18;30.10;32.54
75961;SHT30;64644;48.914;2.254;2023-07-20T15:04:47;29.94;33.59
75961;SHT30;64644;48.914;2.254;2023-07-20T15:07:12;29.87;32.82
75961;SHT30;64644;48.914;2.254;2023-07-20T15:09:38;29.76;32.86
75961;SHT30;64644;48.914;2.254;2023-07-20T15:12:03;29.63;33.65
75961;SHT30;64644;48.914;2.254;2023-07-20T15:14:29;29.58;33.82
75961;SHT30;64644;48.914;2.254;2023-07-20T15:16:54;29.45;33.71
75961;SHT30;64644;48.914;2.254;2023-07-20T15:19:19;29.25;33.37
75961;SHT30;64644;48.914;2.254;2023-07-20T15:21:47;29.15;33.38
75961;SHT30;64644;48.914;2.254;2023-07-20T15:24:12;29.07;33.28
75961;SHT30;64644;48.914;2.254;2023-07-20T15:26:38;28.97;33.55
75961;SHT30;64644;48.914;2.254;2023-07-20T15:29:03;28.86;33.77
75961;SHT30;64644;48.914;2.254;2023-07-20T15:31:29;28.80;33.67
75961;SHT30;64644;48.914;2.254;2023-07-20T15:33:54;28.69;33.59
75961;SHT30;64644;48.914;2.254;2023-07-20T15:36:19;28.59;33.63